Terminal Aerodrome Forecast
Issued by NWS

Home | Current Version | Previous Version | Text Only | Print | Product List | Glossary On
Versions: 1 2 3 4 5 6 7 8 9 10 11 12 13 14 15 16 17 18 19 20 21 22 23 24 25 26
000
FTUS44 KHGX 240520
TAFCXO
TAF
KCXO 240520Z 2406/2506 00000KT P6SM SKC
      TEMPO 2406/2409 5SM BR
     FM240900 36006KT P6SM SKC
     FM241500 35009G19KT P6SM SKC
     FM241800 34014G24KT P6SM SKC
     FM250300 33004KT P6SM SKC=

USA.gov is the U.S. government's official web portal to all federal, state and local government web resources and services.